createdAt,value
2019-05-15T00:00:51.790Z,11.30
2019-05-15T00:03:21.371Z,11.30
2019-05-15T00:05:51.321Z,11.30
2019-05-15T00:08:21.114Z,11.30
2019-05-15T00:10:51.088Z,11.40
2019-05-15T00:13:20.958Z,11.30
2019-05-15T00:15:50.840Z,11.20
2019-05-15T00:18:20.790Z,11.10
2019-05-15T00:20:50.677Z,11.00
2019-05-15T00:23:20.225Z,11.10
2019-05-15T00:25:50.096Z,11.10
2019-05-15T00:28:19.630Z,11.10
2019-05-15T00:30:49.513Z,11.00
2019-05-15T00:33:19.449Z,11.10
2019-05-15T00:35:49.340Z,11.10
2019-05-15T00:38:18.889Z,11.10
2019-05-15T00:40:49.525Z,11.10
2019-05-15T00:43:18.769Z,11.10
2019-05-15T00:45:48.842Z,11.00
2019-05-15T00:48:18.944Z,11.00
2019-05-15T00:50:48.824Z,11.00
2019-05-15T00:53:19.627Z,10.90
2019-05-15T00:55:49.478Z,10.90
2019-05-15T00:58:19.893Z,10.90
2019-05-15T01:00:50.257Z,10.90
2019-05-15T01:03:20.139Z,10.90
2019-05-15T01:05:50.077Z,10.90
2019-05-15T01:08:22.088Z,10.80
2019-05-15T01:10:51.953Z,10.80
2019-05-15T01:13:22.015Z,10.80
2019-05-15T01:15:51.792Z,10.70
2019-05-15T01:18:21.689Z,10.70
2019-05-15T01:20:51.604Z,10.70
2019-05-15T01:23:21.502Z,10.70
2019-05-15T01:25:51.479Z,10.60
2019-05-15T01:28:21.509Z,10.60
2019-05-15T01:30:51.969Z,10.60
2019-05-15T01:33:21.572Z,10.60
2019-05-15T01:35:51.545Z,10.60
2019-05-15T01:38:21.409Z,10.60
2019-05-15T01:40:51.355Z,10.70
2019-05-15T01:43:21.229Z,10.70
2019-05-15T01:45:51.196Z,10.60
2019-05-15T01:48:21.105Z,10.60
2019-05-15T01:50:51.007Z,10.60
2019-05-15T01:53:20.920Z,10.60
2019-05-15T01:55:50.797Z,10.50
2019-05-15T01:58:20.758Z,10.50
2019-05-15T02:00:50.637Z,10.50
2019-05-15T02:03:20.182Z,10.40
2019-05-15T02:05:50.067Z,10.40
2019-05-15T02:08:19.947Z,10.40
2019-05-15T02:10:49.623Z,10.40
2019-05-15T02:13:19.433Z,10.30
2019-05-15T02:15:49.718Z,10.30
2019-05-15T02:18:19.631Z,10.30
2019-05-15T02:20:49.645Z,10.30
2019-05-15T02:23:19.451Z,10.20
2019-05-15T02:25:49.004Z,10.20
2019-05-15T02:28:18.937Z,10.20
2019-05-15T02:30:50.596Z,10.20
2019-05-15T02:33:20.334Z,10.30
2019-05-15T02:35:50.470Z,10.30
2019-05-15T02:38:20.369Z,10.30
2019-05-15T02:40:50.479Z,10.20
2019-05-15T02:43:20.444Z,10.20
2019-05-15T02:45:51.020Z,10.10
2019-05-15T02:48:21.093Z,10.10
2019-05-15T02:50:50.985Z,10.00
2019-05-15T02:53:20.902Z,10.00
2019-05-15T02:55:50.424Z,10.00
2019-05-15T02:58:21.681Z,10.00
2019-05-15T03:00:53.390Z,10.00
2019-05-15T03:03:23.851Z,10.00
2019-05-15T03:05:53.593Z,10.00
2019-05-15T03:08:23.396Z,9.90
2019-05-15T03:10:53.493Z,9.90
2019-05-15T03:13:23.261Z,9.90
2019-05-15T03:15:53.059Z,9.90
2019-05-15T03:18:23.012Z,9.80
2019-05-15T03:20:52.975Z,9.70
2019-05-15T03:23:22.840Z,9.70
2019-05-15T03:25:52.820Z,9.60
2019-05-15T03:28:23.504Z,9.60
2019-05-15T03:33:28.340Z,9.50
2019-05-15T03:36:01.775Z,9.50
2019-05-15T03:38:29.726Z,9.50
2019-05-15T03:40:59.840Z,9.40
2019-05-15T03:43:29.550Z,9.40
2019-05-15T03:46:01.553Z,9.30
2019-05-15T03:48:32.050Z,9.30
2019-05-15T03:51:08.916Z,9.30
2019-05-15T03:53:40.131Z,9.20
2019-05-15T03:56:09.674Z,9.20
2019-05-15T03:58:42.465Z,9.10
2019-05-15T04:01:28.255Z,9.10
2019-05-15T04:03:49.628Z,9.10
2019-05-15T04:06:19.671Z,9.10
2019-05-15T04:08:50.407Z,9.10
2019-05-15T04:11:21.487Z,9.10
2019-05-15T04:13:51.031Z,9.00
2019-05-15T04:16:20.918Z,9.00
2019-05-15T04:18:50.492Z,9.00
2019-05-15T04:21:20.378Z,9.00
2019-05-15T04:23:51.074Z,9.00
2019-05-15T04:26:22.038Z,8.90
2019-05-15T04:28:51.885Z,8.90
2019-05-15T04:31:21.643Z,8.90
2019-05-15T04:33:51.601Z,8.90
2019-05-15T04:36:21.481Z,8.90
2019-05-15T04:38:51.081Z,9.00
2019-05-15T04:41:20.902Z,9.20
2019-05-15T04:43:50.818Z,9.50
2019-05-15T04:46:21.179Z,9.80
2019-05-15T04:48:51.102Z,10.20
2019-05-15T04:51:20.970Z,10.50
2019-05-15T04:53:50.865Z,10.80
2019-05-15T04:56:20.798Z,11.10
2019-05-15T04:58:51.116Z,11.50
2019-05-15T05:01:21.161Z,11.80
2019-05-15T05:03:51.069Z,12.20
2019-05-15T05:06:21.109Z,12.70
2019-05-15T05:08:51.133Z,13.10
2019-05-15T05:11:23.862Z,13.70
2019-05-15T05:13:52.881Z,14.20
2019-05-15T05:16:22.685Z,14.60
2019-05-15T05:18:52.657Z,15.10
2019-05-15T05:21:22.505Z,15.50
2019-05-15T05:23:52.423Z,15.80
2019-05-15T05:26:22.335Z,15.80
2019-05-15T05:28:52.245Z,14.60
2019-05-15T05:31:22.177Z,13.50
2019-05-15T05:33:52.068Z,12.80
2019-05-15T05:36:22.006Z,12.30
2019-05-15T05:38:51.932Z,11.90
2019-05-15T05:41:21.837Z,11.60
2019-05-15T05:43:51.749Z,11.40
2019-05-15T05:46:21.676Z,11.40
2019-05-15T05:48:51.593Z,11.40
2019-05-15T05:51:21.539Z,11.30
2019-05-15T05:53:51.394Z,11.30
2019-05-15T05:56:21.321Z,11.20
2019-05-15T05:58:51.217Z,11.20
2019-05-15T06:01:21.187Z,11.20
2019-05-15T06:03:51.043Z,11.30
2019-05-15T06:06:21.004Z,11.20
2019-05-15T06:08:50.604Z,11.30
2019-05-15T06:11:20.449Z,11.40
2019-05-15T06:13:52.548Z,11.50
2019-05-15T06:16:21.942Z,11.50
2019-05-15T06:18:51.758Z,11.50
2019-05-15T06:21:22.493Z,11.60
2019-05-15T06:23:55.264Z,11.60
2019-05-15T06:26:23.961Z,11.70
2019-05-15T06:28:54.735Z,11.80
2019-05-15T06:31:24.612Z,11.90
2019-05-15T06:33:54.554Z,11.90
2019-05-15T06:36:24.466Z,12.00
2019-05-15T06:38:54.381Z,12.10
2019-05-15T06:41:24.281Z,12.00
2019-05-15T06:43:54.204Z,12.10
2019-05-15T06:46:24.125Z,12.20
2019-05-15T06:48:54.019Z,12.40
2019-05-15T06:51:23.613Z,12.50
2019-05-15T06:53:53.503Z,12.70
2019-05-15T06:56:23.339Z,13.00
2019-05-15T06:58:52.945Z,13.40
2019-05-15T07:01:22.743Z,13.70
2019-05-15T07:03:52.369Z,14.10
2019-05-15T07:06:22.282Z,14.20
2019-05-15T07:08:52.252Z,14.30
2019-05-15T07:11:22.140Z,14.30
2019-05-15T07:13:52.876Z,14.40
2019-05-15T07:16:22.765Z,14.60
2019-05-15T07:18:53.569Z,14.70
2019-05-15T07:21:23.421Z,14.90
2019-05-15T07:23:53.336Z,15.00
2019-05-15T07:26:23.239Z,15.20
2019-05-15T07:28:53.152Z,15.30
2019-05-15T07:31:23.077Z,15.60
2019-05-15T07:33:53.045Z,15.70
2019-05-15T07:36:22.894Z,15.80
2019-05-15T07:38:52.890Z,16.10
2019-05-15T07:41:22.729Z,16.30
2019-05-15T07:43:52.647Z,16.50
2019-05-15T07:46:22.542Z,16.80
2019-05-15T07:48:52.106Z,16.90
2019-05-15T07:51:21.974Z,17.00
2019-05-15T07:53:51.893Z,17.10
2019-05-15T07:56:21.801Z,17.30
2019-05-15T07:58:52.970Z,17.40
2019-05-15T08:01:22.862Z,17.50
2019-05-15T08:04:05.107Z,17.60
2019-05-15T08:06:24.831Z,17.70
2019-05-15T08:08:54.701Z,18.00
2019-05-15T08:11:25.012Z,18.00
2019-05-15T08:13:54.984Z,18.10
2019-05-15T08:16:24.803Z,18.20
2019-05-15T08:18:54.741Z,18.20
2019-05-15T08:21:24.723Z,18.30
2019-05-15T08:23:54.542Z,18.30
2019-05-15T08:26:24.107Z,18.40
2019-05-15T08:28:53.981Z,18.60
2019-05-15T08:31:23.906Z,18.80
2019-05-15T08:33:53.790Z,19.10
2019-05-15T08:36:23.437Z,19.40
2019-05-15T08:38:53.207Z,19.40
2019-05-15T08:41:23.133Z,19.30
2019-05-15T08:43:52.653Z,19.40
2019-05-15T08:46:22.678Z,19.40
2019-05-15T08:48:52.455Z,19.40
2019-05-15T08:51:21.997Z,19.60
2019-05-15T08:53:51.520Z,19.70
2019-05-15T08:56:21.081Z,19.90
2019-05-15T08:58:50.881Z,20.00
2019-05-15T09:01:20.415Z,20.00
2019-05-15T09:03:49.942Z,20.00
2019-05-15T09:06:22.965Z,20.10
2019-05-15T09:08:51.492Z,20.20
2019-05-15T09:11:21.107Z,20.20
2019-05-15T09:13:53.513Z,20.20
2019-05-15T09:16:22.452Z,20.20
2019-05-15T09:18:52.352Z,20.30
2019-05-15T09:21:22.401Z,20.20
2019-05-15T09:23:52.196Z,20.20
2019-05-15T09:26:22.128Z,20.30
2019-05-15T09:28:52.026Z,20.40
2019-05-15T09:31:21.949Z,20.30
2019-05-15T09:33:51.857Z,20.30
2019-05-15T09:36:21.812Z,20.20
2019-05-15T09:38:51.677Z,20.10
2019-05-15T09:41:21.598Z,20.20
2019-05-15T09:43:51.561Z,20.00
2019-05-15T09:46:21.531Z,19.80
2019-05-15T09:48:52.008Z,19.60
2019-05-15T09:51:21.230Z,19.40
2019-05-15T09:53:50.677Z,19.30
2019-05-15T09:56:20.217Z,19.30
2019-05-15T09:58:50.239Z,19.30
2019-05-15T10:01:22.141Z,19.20
2019-05-15T10:03:52.055Z,19.00
2019-05-15T10:06:21.981Z,18.80
2019-05-15T10:08:51.903Z,18.70
2019-05-15T10:11:21.851Z,18.70
2019-05-15T10:14:10.797Z,18.60
2019-05-15T10:16:40.470Z,18.60
2019-05-15T10:19:10.362Z,18.50
2019-05-15T10:21:40.306Z,18.50
2019-05-15T10:24:10.230Z,18.40
2019-05-15T10:26:40.105Z,18.50
2019-05-15T10:29:09.647Z,18.50
2019-05-15T10:31:39.533Z,18.30
2019-05-15T10:34:09.348Z,18.30
2019-05-15T10:36:39.057Z,18.30
2019-05-15T10:39:09.082Z,18.30
2019-05-15T10:41:39.608Z,18.20
2019-05-15T10:44:09.439Z,18.20
2019-05-15T10:46:39.430Z,18.30
2019-05-15T10:49:09.038Z,18.30
2019-05-15T10:51:39.653Z,18.20
2019-05-15T10:54:09.612Z,18.20
2019-05-15T10:56:39.676Z,18.10
2019-05-15T10:59:09.424Z,18.00
2019-05-15T11:01:39.406Z,18.10
2019-05-15T11:04:09.530Z,18.10
2019-05-15T11:06:39.221Z,18.20
2019-05-15T11:09:09.087Z,18.20
2019-05-15T11:11:38.981Z,18.10
2019-05-15T11:14:09.290Z,18.10
2019-05-15T11:16:39.364Z,18.10
2019-05-15T11:19:09.282Z,18.10
2019-05-15T11:21:48.351Z,18.20
2019-05-15T11:24:19.711Z,18.20
2019-05-15T11:26:50.161Z,18.20
2019-05-15T11:29:20.850Z,18.10
2019-05-15T11:31:50.741Z,18.20
2019-05-15T11:34:20.629Z,18.20
2019-05-15T11:36:50.534Z,18.20
2019-05-15T11:39:20.581Z,18.20
2019-05-15T11:41:50.366Z,18.10
2019-05-15T11:44:20.285Z,18.10
2019-05-15T11:46:50.191Z,18.20
2019-05-15T11:49:20.122Z,18.30
2019-05-15T11:51:50.077Z,18.30
2019-05-15T11:54:20.042Z,18.30
2019-05-15T11:56:49.841Z,18.30
2019-05-15T11:59:19.814Z,18.30
2019-05-15T12:01:49.666Z,18.40
2019-05-15T12:04:29.794Z,18.50
2019-05-15T12:07:01.557Z,18.60
2019-05-15T12:09:22.693Z,18.60
2019-05-15T12:11:52.592Z,18.70
2019-05-15T12:14:22.157Z,18.60
2019-05-15T12:17:05.206Z,18.70
2019-05-15T12:19:23.177Z,18.60
2019-05-15T12:21:53.097Z,18.70
2019-05-15T12:24:22.988Z,18.70
2019-05-15T12:26:52.545Z,18.70
2019-05-15T12:29:22.403Z,18.70
2019-05-15T12:31:52.006Z,18.70
2019-05-15T12:34:21.842Z,18.60
2019-05-15T12:36:57.769Z,18.60
2019-05-15T12:39:23.449Z,18.60
2019-05-15T12:59:41.305Z,18.90
2019-05-15T13:02:05.244Z,18.90
2019-05-15T13:04:34.813Z,18.90
2019-05-15T13:07:13.778Z,18.90
2019-05-15T13:09:38.031Z,18.90
2019-05-15T13:12:08.543Z,18.90
2019-05-15T13:14:38.970Z,18.90
2019-05-15T13:17:08.672Z,19.00
2019-05-15T13:19:38.936Z,19.10
2019-05-15T13:22:17.567Z,19.10
2019-05-15T13:24:48.310Z,19.00
2019-05-15T13:27:19.443Z,19.00
2019-05-15T13:29:49.205Z,19.00
2019-05-15T13:32:19.156Z,19.10
2019-05-15T13:34:49.173Z,19.00
2019-05-15T13:37:26.669Z,19.10
2019-05-15T13:39:50.459Z,19.20
2019-05-15T13:42:20.367Z,19.30
2019-05-15T13:44:50.270Z,19.30
2019-05-15T13:47:20.196Z,19.30
2019-05-15T13:49:50.154Z,19.40
2019-05-15T13:52:20.020Z,19.30
2019-05-15T13:54:49.933Z,19.30
2019-05-15T13:57:19.841Z,19.30
2019-05-15T13:59:49.697Z,19.30
2019-05-15T14:02:19.234Z,19.30
2019-05-15T14:04:49.356Z,19.40
2019-05-15T14:07:19.361Z,19.40
2019-05-15T14:09:49.681Z,19.50
2019-05-15T14:12:19.317Z,19.50
2019-05-15T14:14:49.233Z,19.50
2019-05-15T14:17:18.848Z,19.50
2019-05-15T14:19:48.776Z,19.50
2019-05-15T14:22:18.591Z,19.40
2019-05-15T14:24:48.994Z,19.40
2019-05-15T14:27:19.504Z,19.50
2019-05-15T14:29:49.548Z,19.50
2019-05-15T14:32:34.112Z,19.60
2019-05-15T14:34:51.270Z,19.60
2019-05-15T14:37:20.921Z,19.70
2019-05-15T14:39:52.410Z,19.70
2019-05-15T14:42:22.470Z,19.70
2019-05-15T14:44:52.286Z,19.70
2019-05-15T14:47:22.289Z,19.70
2019-05-15T14:49:52.148Z,19.70
2019-05-15T14:52:22.038Z,19.70
2019-05-15T14:54:51.566Z,19.80
2019-05-15T14:57:21.206Z,19.70
2019-05-15T14:59:51.023Z,19.70
2019-05-15T15:02:20.978Z,19.70
2019-05-15T15:04:50.887Z,19.60
2019-05-15T15:07:20.717Z,19.60
2019-05-15T15:09:50.266Z,19.70
2019-05-15T15:12:20.167Z,19.70
2019-05-15T15:14:50.095Z,19.70
2019-05-15T15:17:20.029Z,19.70
2019-05-15T15:19:51.461Z,19.70
2019-05-15T15:22:21.144Z,19.70
2019-05-15T15:24:51.065Z,19.70
2019-05-15T15:27:21.782Z,19.80
2019-05-15T15:29:51.719Z,19.80
2019-05-15T15:32:21.649Z,19.70
2019-05-15T15:34:51.594Z,19.70
2019-05-15T15:37:21.457Z,19.70
2019-05-15T15:39:51.379Z,19.70
2019-05-15T15:42:21.267Z,19.70
2019-05-15T15:44:51.248Z,19.70
2019-05-15T15:47:21.085Z,19.60
2019-05-15T15:49:51.064Z,19.60
2019-05-15T15:52:20.941Z,19.70
2019-05-15T15:54:50.769Z,19.70
2019-05-15T15:57:20.294Z,19.70
2019-05-15T15:59:49.922Z,19.70
2019-05-15T16:02:19.821Z,19.70
2019-05-15T16:04:50.544Z,19.70
2019-05-15T16:07:20.409Z,19.70
2019-05-15T16:09:51.661Z,19.60
2019-05-15T16:12:21.500Z,19.70
2019-05-15T16:14:51.384Z,19.60
2019-05-15T16:17:21.325Z,19.50
2019-05-15T16:19:50.853Z,19.50
2019-05-15T16:22:20.692Z,19.40
2019-05-15T16:24:50.625Z,19.40
2019-05-15T16:27:20.626Z,19.30
2019-05-15T16:29:50.447Z,19.30
2019-05-15T16:32:21.878Z,19.40
2019-05-15T16:34:51.523Z,19.40
2019-05-15T16:37:21.466Z,19.30
2019-05-15T16:39:51.332Z,19.30
2019-05-15T16:42:21.266Z,19.20
2019-05-15T16:44:50.841Z,19.20
2019-05-15T16:47:20.689Z,19.20
2019-05-15T16:49:50.582Z,19.10
2019-05-15T16:52:20.532Z,19.10
2019-05-15T16:54:50.412Z,19.10
2019-05-15T16:57:19.959Z,19.10
2019-05-15T16:59:49.841Z,19.00
2019-05-15T17:02:19.436Z,19.00
2019-05-15T17:04:49.258Z,18.90
2019-05-15T17:07:19.671Z,18.90
2019-05-15T17:09:49.489Z,18.90
2019-05-15T17:12:19.038Z,18.90
2019-05-15T17:14:48.917Z,18.90
2019-05-15T17:17:18.531Z,18.90
2019-05-15T17:19:48.581Z,18.80
2019-05-15T17:22:19.773Z,18.70
2019-05-15T17:24:49.422Z,18.70
2019-05-15T17:27:20.249Z,18.70
2019-05-15T17:29:50.149Z,18.60
2019-05-15T17:32:20.089Z,18.60
2019-05-15T17:34:49.977Z,18.50
2019-05-15T17:37:19.916Z,18.50
2019-05-15T17:39:49.725Z,18.40
2019-05-15T17:42:19.276Z,18.40
2019-05-15T17:44:49.286Z,18.30
2019-05-15T17:47:19.153Z,18.30
2019-05-15T17:49:49.057Z,18.20
2019-05-15T17:52:19.453Z,18.20
2019-05-15T17:54:49.283Z,18.10
2019-05-15T17:57:19.579Z,18.00
2019-05-15T17:59:49.606Z,17.90
2019-05-15T18:02:19.455Z,17.90
2019-05-15T18:04:49.440Z,17.80
2019-05-15T18:07:19.337Z,17.80
2019-05-15T18:09:54.047Z,17.70
2019-05-15T18:12:20.733Z,17.70
2019-05-15T18:14:50.689Z,17.60
2019-05-15T18:17:20.560Z,17.60
2019-05-15T18:19:50.493Z,17.60
2019-05-15T18:22:20.029Z,17.50
2019-05-15T18:24:49.920Z,17.50
2019-05-15T18:27:19.891Z,17.40
2019-05-15T18:29:49.814Z,17.40
2019-05-15T18:32:39.337Z,17.40
2019-05-15T18:35:09.430Z,17.40
2019-05-15T18:37:39.593Z,17.30
2019-05-15T18:40:10.401Z,17.30
2019-05-15T18:42:39.688Z,17.20
2019-05-15T18:45:10.037Z,17.10
2019-05-15T18:47:39.625Z,17.10
2019-05-15T18:50:13.230Z,17.10
2019-05-15T18:52:41.487Z,17.00
2019-05-15T18:55:11.861Z,17.00
2019-05-15T18:57:41.725Z,16.90
2019-05-15T19:00:12.084Z,16.90
2019-05-15T19:02:41.985Z,16.90
2019-05-15T19:05:11.913Z,16.80
2019-05-15T19:07:41.785Z,16.80
2019-05-15T19:10:13.527Z,16.70
2019-05-15T19:12:43.266Z,16.60
2019-05-15T19:15:13.341Z,16.60
2019-05-15T19:17:43.196Z,16.50
2019-05-15T19:20:13.860Z,16.40
2019-05-15T19:22:44.580Z,16.40
2019-05-15T19:25:17.805Z,16.30
2019-05-15T19:27:47.348Z,16.30
2019-05-15T19:30:19.054Z,16.20
2019-05-15T19:32:58.483Z,16.10
2019-05-15T19:35:28.601Z,16.10
2019-05-15T19:37:58.840Z,16.00
2019-05-15T19:40:28.849Z,15.90
2019-05-15T19:43:18.163Z,15.80
2019-05-15T19:45:49.655Z,15.80
2019-05-15T19:48:20.140Z,15.70
2019-05-15T19:50:50.208Z,15.70
2019-05-15T19:53:20.113Z,15.70
2019-05-15T19:55:50.032Z,15.60
2019-05-15T19:58:19.924Z,15.50
2019-05-15T20:00:51.563Z,15.40
2019-05-15T20:03:21.453Z,15.40
2019-05-15T20:05:51.360Z,15.40
2019-05-15T20:08:21.280Z,15.40
2019-05-15T20:10:51.192Z,15.40
2019-05-15T20:13:21.117Z,15.30
2019-05-15T20:15:51.402Z,15.20
2019-05-15T20:18:21.333Z,15.20
2019-05-15T20:20:51.229Z,15.10
2019-05-15T20:23:21.329Z,15.10
2019-05-15T20:25:51.890Z,15.10
2019-05-15T20:28:21.812Z,15.00
2019-05-15T20:30:51.721Z,14.90
2019-05-15T20:33:21.607Z,14.90
2019-05-15T20:35:51.545Z,14.90
2019-05-15T20:38:21.535Z,14.80
2019-05-15T20:40:51.361Z,14.70
2019-05-15T20:43:21.329Z,14.70
2019-05-15T20:45:51.217Z,14.60
2019-05-15T20:48:21.180Z,14.60
2019-05-15T20:50:50.996Z,14.50
2019-05-15T20:53:20.926Z,14.50
2019-05-15T20:55:50.909Z,14.40
2019-05-15T20:58:20.778Z,14.40
2019-05-15T21:00:51.449Z,14.40
2019-05-15T21:03:20.578Z,14.30
2019-05-15T21:05:50.088Z,14.20
2019-05-15T21:08:20.073Z,14.20
2019-05-15T21:10:50.070Z,14.20
2019-05-15T21:13:19.907Z,14.10
2019-05-15T21:15:50.635Z,14.00
2019-05-15T21:18:20.480Z,14.00
2019-05-15T21:20:50.393Z,14.00
2019-05-15T21:23:19.936Z,13.90
2019-05-15T21:25:49.796Z,13.90
2019-05-15T21:28:19.336Z,13.90
2019-05-15T21:30:49.585Z,13.80
2019-05-15T21:33:19.789Z,13.80
2019-05-15T21:35:49.977Z,13.80
2019-05-15T21:38:21.405Z,13.70
2019-05-15T21:40:55.745Z,13.60
2019-05-15T21:43:26.619Z,13.60
2019-05-15T21:45:56.220Z,13.50
2019-05-15T21:48:26.034Z,13.50
2019-05-15T21:50:57.578Z,13.50
2019-05-15T21:53:28.746Z,13.40
2019-05-15T21:55:58.984Z,13.40
2019-05-15T21:58:28.956Z,13.40
2019-05-15T22:00:59.028Z,13.30
2019-05-15T22:03:28.866Z,13.30
2019-05-15T22:05:58.817Z,13.20
2019-05-15T22:08:28.791Z,13.20
2019-05-15T22:10:58.536Z,13.20
2019-05-15T22:13:31.120Z,13.20
2019-05-15T22:15:59.669Z,13.10
2019-05-15T22:18:29.540Z,13.10
2019-05-15T22:20:59.241Z,13.00
2019-05-15T22:23:29.032Z,13.00
2019-05-15T22:25:58.861Z,13.00
2019-05-15T22:28:28.490Z,13.00
2019-05-15T22:30:58.527Z,12.90
2019-05-15T22:33:28.524Z,12.90
2019-05-15T22:35:59.240Z,12.90
2019-05-15T22:38:29.285Z,12.90
2019-05-15T22:40:59.177Z,12.80
2019-05-15T22:43:28.880Z,12.70
2019-05-15T22:45:58.930Z,12.60
2019-05-15T22:48:28.825Z,12.60
2019-05-15T22:50:58.474Z,12.60
2019-05-15T22:53:28.841Z,12.60
2019-05-15T22:55:58.934Z,12.60
2019-05-15T22:58:28.590Z,12.50
2019-05-15T23:00:59.723Z,12.50
2019-05-15T23:03:29.645Z,12.40
2019-05-15T23:05:59.490Z,12.40
2019-05-15T23:08:29.272Z,12.40
2019-05-15T23:10:59.018Z,12.40
2019-05-15T23:13:28.763Z,12.40
2019-05-15T23:15:58.632Z,12.30
2019-05-15T23:18:28.325Z,12.30
2019-05-15T23:20:59.438Z,12.30
2019-05-15T23:23:29.438Z,12.20
2019-05-15T23:25:59.313Z,12.20
2019-05-15T23:28:28.832Z,12.10
2019-05-15T23:30:58.378Z,12.10
2019-05-15T23:33:28.360Z,12.10
2019-05-15T23:35:58.761Z,12.00
2019-05-15T23:38:28.486Z,12.00
2019-05-15T23:41:02.128Z,12.00
2019-05-15T23:43:32.000Z,11.90
2019-05-15T23:46:01.541Z,11.90
2019-05-15T23:48:31.073Z,11.80
2019-05-15T23:51:00.948Z,11.80
2019-05-15T23:53:30.493Z,11.70
2019-05-15T23:56:00.439Z,11.70
2019-05-15T23:58:30.275Z,11.70
